Time;durP1;ratioP1;P1;durP2;ratioP2;P2;SDS_P1;SDS_P2;PMS_P1;PMS_P2;Temp;Humidity;BMP_temperature;BMP_pressure;BME280_temperature;BME280_humidity;BME280_pressure;Samples;Min_cycle;Max_cycle;Signal;HPM_P1;HPM_P2
2023/10/24 00:01:28;;;;;;;14.20;10.10;;;;;;;11.28;100.00;99132.56;4991594;28;20234;-74
2023/10/24 00:03:53;;;;;;;13.77;9.63;;;;;;;11.16;100.00;99115.44;4995807;28;20171;-74
2023/10/24 00:06:19;;;;;;;14.07;10.30;;;;;;;11.09;100.00;99107.34;4991316;28;20263;-74
2023/10/24 00:08:44;;;;;;;13.17;10.40;;;;;;;10.92;100.00;99114.53;4991579;28;20590;-74
2023/10/24 00:11:09;;;;;;;15.00;10.13;;;;;;;10.92;100.00;99124.81;4989993;28;20682;-74
2023/10/24 00:13:35;;;;;;;11.33;10.23;;;;;;;10.87;100.00;99129.47;4993078;28;20195;-74
2023/10/24 00:16:00;;;;;;;14.77;10.90;;;;;;;10.98;100.00;99137.25;4993460;28;20179;-74
2023/10/24 00:18:26;;;;;;;12.57;9.53;;;;;;;11.11;100.00;99124.31;4994718;28;20175;-74
2023/10/24 00:20:52;;;;;;;12.73;10.40;;;;;;;11.22;100.00;99136.41;4986252;28;20756;-74
2023/10/24 00:23:17;;;;;;;14.47;10.07;;;;;;;11.26;100.00;99147.28;5003043;28;20203;-74
2023/10/24 00:25:42;;;;;;;11.63;10.37;;;;;;;11.27;100.00;99138.66;4994511;28;20255;-75
2023/10/24 00:28:08;;;;;;;11.67;10.47;;;;;;;11.24;100.00;99149.19;4993509;28;20178;-75
2023/10/24 00:30:33;;;;;;;14.97;10.50;;;;;;;11.36;100.00;99145.72;4986184;28;20223;-75
2023/10/24 00:32:59;;;;;;;12.77;10.50;;;;;;;11.43;100.00;99149.44;4992756;28;20275;-75
2023/10/24 00:35:24;;;;;;;15.30;10.43;;;;;;;11.33;100.00;99152.84;4994222;28;20729;-75
2023/10/24 00:37:49;;;;;;;11.57;10.37;;;;;;;11.41;100.00;99135.06;4994809;28;20190;-75
2023/10/24 00:40:15;;;;;;;10.53;9.43;;;;;;;11.40;100.00;99147.13;4985783;28;20572;-76
2023/10/24 00:42:40;;;;;;;15.40;9.67;;;;;;;11.30;100.00;99146.16;4992296;28;20175;-76
2023/10/24 00:45:06;;;;;;;10.67;9.57;;;;;;;11.33;100.00;99142.53;4993109;28;20175;-77
2023/10/24 00:47:32;;;;;;;13.13;9.67;;;;;;;11.38;100.00;99140.44;4994577;28;20544;-77
2023/10/24 00:49:57;;;;;;;11.27;10.03;;;;;;;11.18;100.00;99159.91;4992848;28;20179;-76
2023/10/24 00:52:23;;;;;;;11.33;10.13;;;;;;;11.06;100.00;99165.00;4998748;28;20226;-76
2023/10/24 00:54:48;;;;;;;12.23;10.43;;;;;;;11.03;100.00;99172.94;4993809;28;20242;-75
2023/10/24 00:57:14;;;;;;;12.03;9.70;;;;;;;11.11;100.00;99159.53;4992934;28;20195;-75
2023/10/24 00:59:40;;;;;;;12.90;9.57;;;;;;;11.33;100.00;99157.97;4994157;28;20518;-75
2023/10/24 01:02:06;;;;;;;11.07;9.90;;;;;;;11.37;100.00;99144.75;4995915;28;20318;-74
2023/10/24 01:04:33;;;;;;;16.83;10.63;;;;;;;11.47;100.00;99139.75;4986327;28;20263;-75
2023/10/24 01:06:59;;;;;;;12.70;10.77;;;;;;;11.49;100.00;99150.78;4992521;28;20548;-75
2023/10/24 01:09:25;;;;;;;13.13;11.23;;;;;;;11.22;100.00;99159.56;4993933;28;20274;-75
2023/10/24 01:11:52;;;;;;;15.13;10.67;;;;;;;11.22;100.00;99156.19;4996704;28;20230;-75
2023/10/24 01:14:18;;;;;;;12.13;10.60;;;;;;;11.28;100.00;99148.00;4992397;28;20191;-74
2023/10/24 01:16:44;;;;;;;11.27;10.13;;;;;;;11.39;100.00;99135.16;4992387;28;20187;-74
2023/10/24 01:19:10;;;;;;;12.07;10.97;;;;;;;11.48;100.00;99125.13;4992118;28;20202;-74
2023/10/24 01:21:36;;;;;;;12.93;11.63;;;;;;;11.53;100.00;99118.69;4984793;28;20299;-74
2023/10/24 01:24:01;;;;;;;12.83;11.43;;;;;;;11.50;100.00;99103.50;4996003;28;20603;-74
2023/10/24 01:26:27;;;;;;;19.00;12.13;;;;;;;11.41;100.00;99099.00;4993573;28;20262;-75
2023/10/24 01:28:53;;;;;;;12.93;11.57;;;;;;;11.40;100.00;99108.50;4993486;28;20187;-74
2023/10/24 01:31:18;;;;;;;14.53;11.60;;;;;;;11.13;100.00;99112.16;4985271;28;20238;-74
2023/10/24 01:33:43;;;;;;;13.70;12.30;;;;;;;10.92;100.00;99121.44;4998609;28;20559;-74
2023/10/24 01:36:08;;;;;;;12.83;11.60;;;;;;;10.96;100.00;99126.25;4993528;28;20266;-74
2023/10/24 01:38:34;;;;;;;12.43;11.13;;;;;;;11.09;100.00;99120.22;4993129;28;20614;-74
2023/10/24 01:40:59;;;;;;;13.93;12.17;;;;;;;11.11;100.00;99101.16;4990676;28;20285;-74
2023/10/24 01:43:24;;;;;;;14.33;13.03;;;;;;;11.26;100.00;99103.53;4981537;28;20266;-74
2023/10/24 01:45:49;;;;;;;14.30;12.90;;;;;;;11.24;100.00;99121.66;4993502;28;20175;-73
2023/10/24 01:48:15;;;;;;;14.07;12.67;;;;;;;11.22;100.00;99115.00;4993169;28;20543;-73
2023/10/24 01:50:40;;;;;;;18.60;13.17;;;;;;;11.25;100.00;99119.91;4984800;28;20226;-73
2023/10/24 01:53:05;;;;;;;13.47;12.17;;;;;;;11.32;100.00;99117.72;4991374;28;20184;-74
2023/10/24 01:55:30;;;;;;;14.70;13.30;;;;;;;11.37;100.00;99107.91;4993296;28;20807;-73
2023/10/24 01:57:56;;;;;;;14.23;12.60;;;;;;;11.27;100.00;99107.75;4991646;28;20188;-73
2023/10/24 02:00:21;;;;;;;16.63;12.17;;;;;;;11.18;100.00;99108.44;4985502;28;20792;-72
2023/10/24 02:02:46;;;;;;;14.03;12.73;;;;;;;11.24;100.00;99103.66;5004418;28;20235;-73
2023/10/24 02:05:12;;;;;;;15.33;12.20;;;;;;;11.32;100.00;99108.22;4992894;28;20183;-74
2023/10/24 02:07:38;;;;;;;13.27;12.07;;;;;;;11.39;100.00;99106.84;4992832;28;20187;-74
2023/10/24 02:10:04;;;;;;;13.70;12.30;;;;;;;11.18;100.00;99108.44;4979747;28;20243;-72
2023/10/24 02:12:29;;;;;;;19.47;11.70;;;;;;;11.19;100.00;99107.47;4982051;28;20192;-73
2023/10/24 02:14:55;;;;;;;13.30;11.90;;;;;;;11.23;100.00;99109.72;4991410;28;20207;-72
2023/10/24 02:17:20;;;;;;;12.33;11.23;;;;;;;11.18;100.00;99091.22;4991083;28;20175;-72
2023/10/24 02:19:45;;;;;;;12.23;11.00;;;;;;;11.17;100.00;99102.44;4992474;28;20682;-72
2023/10/24 02:22:10;;;;;;;15.33;12.20;;;;;;;11.33;100.00;99093.63;4997225;28;20239;-72
2023/10/24 02:24:36;;;;;;;15.07;11.87;;;;;;;11.30;100.00;99087.75;4991239;28;20184;-73
2023/10/24 02:27:01;;;;;;;16.77;12.00;;;;;;;11.41;100.00;99091.28;4992529;28;20622;-74
2023/10/24 02:29:27;;;;;;;15.07;11.53;;;;;;;11.40;100.00;99087.06;4991167;28;20183;-73
2023/10/24 02:31:52;;;;;;;16.20;11.97;;;;;;;11.09;100.00;99082.44;4995335;28;20237;-73
2023/10/24 02:34:17;;;;;;;14.93;12.13;;;;;;;11.12;100.00;99083.94;4990399;28;20203;-73
2023/10/24 02:36:43;;;;;;;13.47;12.03;;;;;;;11.25;100.00;99089.84;4992438;28;20191;-73
2023/10/24 02:39:09;;;;;;;15.53;12.27;;;;;;;11.29;100.00;99093.03;4990767;28;20191;-73
2023/10/24 02:41:35;;;;;;;14.77;12.57;;;;;;;11.35;100.00;99090.00;4983687;28;20226;-72
2023/10/24 02:44:00;;;;;;;18.30;11.40;;;;;;;11.39;100.00;99090.59;4985315;28;20258;-72
2023/10/24 02:46:25;;;;;;;13.60;12.30;;;;;;;11.26;100.00;99088.09;4990725;28;20178;-73
2023/10/24 02:48:51;;;;;;;14.13;12.63;;;;;;;11.12;100.00;99105.34;4991976;28;20191;-73
2023/10/24 02:51:16;;;;;;;13.27;11.83;;;;;;;11.25;100.00;99117.31;4984306;28;20241;-72
2023/10/24 02:53:41;;;;;;;13.10;11.80;;;;;;;11.38;100.00;99115.50;4989717;28;20686;-72
2023/10/24 02:56:07;;;;;;;13.80;12.40;;;;;;;11.50;100.00;99115.53;4992522;28;20183;-73
2023/10/24 02:58:32;;;;;;;14.13;12.27;;;;;;;11.50;100.00;99116.38;4991837;28;20524;-73
2023/10/24 03:01:04;;;;;;;16.73;11.77;;;;;;;11.51;100.00;99106.88;4983981;28;20349;-72
2023/10/24 03:03:30;;;;;;;16.90;12.37;;;;;;;11.57;100.00;99107.25;4989218;28;20219;-72
2023/10/24 03:05:55;;;;;;;14.37;12.17;;;;;;;11.71;100.00;99100.22;4990954;28;20646;-72
2023/10/24 03:08:21;;;;;;;14.83;11.63;;;;;;;11.61;100.00;99108.66;4992040;28;20242;-72
2023/10/24 03:10:46;;;;;;;13.57;12.23;;;;;;;11.66;100.00;99107.47;4987749;28;20240;-72
2023/10/24 03:13:11;;;;;;;15.93;12.17;;;;;;;11.58;100.00;99113.22;4988871;28;20567;-72
2023/10/24 03:15:36;;;;;;;14.90;12.40;;;;;;;11.39;100.00;99114.56;4990787;28;20238;-72
2023/10/24 03:18:02;;;;;;;14.37;12.60;;;;;;;11.42;100.00;99124.66;4990228;28;20191;-72
2023/10/24 03:20:27;;;;;;;15.00;12.53;;;;;;;11.43;100.00;99121.13;4985200;28;20321;-73
2023/10/24 03:22:56;;;;;;;15.40;13.87;;;;;;;11.47;100.00;99114.00;5001747;28;20219;-72
2023/10/24 03:25:26;;;;;;;17.13;12.17;;;;;;;11.55;100.00;99109.13;4990472;28;20266;-73
2023/10/24 03:27:54;;;;;;;13.53;12.30;;;;;;;11.51;100.00;99115.44;4991833;28;20538;-72
2023/10/24 03:30:20;;;;;;;18.50;13.40;;;;;;;11.50;100.00;99118.94;4961983;28;20184;-72
2023/10/24 03:32:45;;;;;;;17.30;12.20;;;;;;;11.53;100.00;99115.31;4979462;28;20183;-73
2023/10/24 03:35:11;;;;;;;15.70;12.00;;;;;;;11.34;100.00;99116.66;4990475;28;20214;-73
2023/10/24 03:37:36;;;;;;;12.03;10.90;;;;;;;11.45;100.00;99124.41;4990483;28;20646;-73
2023/10/24 03:40:02;;;;;;;12.50;11.07;;;;;;;11.53;100.00;99123.03;4989174;28;20202;-73
2023/10/24 03:42:29;;;;;;;20.23;11.83;;;;;;;11.61;100.00;99138.75;4999018;28;20288;-73
2023/10/24 03:44:54;;;;;;;15.97;12.57;;;;;;;11.60;100.00;99135.34;4983664;28;20211;-73
2023/10/24 03:47:20;;;;;;;13.30;12.00;;;;;;;11.49;100.00;99132.75;4993088;28;20218;-73
2023/10/24 03:49:45;;;;;;;15.27;11.40;;;;;;;11.53;100.00;99136.72;4995498;28;20186;-73
2023/10/24 03:52:10;;;;;;;16.17;11.20;;;;;;;11.52;100.00;99127.34;4985457;28;20223;-73
2023/10/24 03:54:36;;;;;;;15.30;11.20;;;;;;;11.50;100.00;99125.81;4995268;28;20813;-73
2023/10/24 03:57:01;;;;;;;15.27;12.07;;;;;;;11.54;100.00;99122.91;4995124;28;20242;-73
2023/10/24 03:59:26;;;;;;;13.47;12.03;;;;;;;11.47;100.00;99114.00;4993949;28;20556;-73
2023/10/24 04:01:51;;;;;;;15.07;12.10;;;;;;;11.30;100.00;99112.69;4985832;28;20317;-73
2023/10/24 04:04:17;;;;;;;12.97;11.70;;;;;;;11.35;100.00;99114.91;4996847;28;20646;-73
2023/10/24 04:06:43;;;;;;;15.87;12.70;;;;;;;11.13;100.00;99119.06;4995030;28;20291;-73
2023/10/24 04:09:08;;;;;;;14.47;12.57;;;;;;;11.03;100.00;99134.34;4993958;28;20624;-73
2023/10/24 04:11:34;;;;;;;14.07;12.37;;;;;;;11.05;100.00;99135.06;4985939;28;20245;-73
2023/10/24 04:13:59;;;;;;;18.70;12.53;;;;;;;11.13;100.00;99130.16;4998403;28;20567;-73
2023/10/24 04:16:24;;;;;;;13.87;12.07;;;;;;;11.17;100.00;99133.34;4993320;28;20245;-73
2023/10/24 04:18:50;;;;;;;15.73;13.00;;;;;;;11.08;100.00;99132.25;4994857;28;20190;-73
2023/10/24 04:21:15;;;;;;;15.00;12.67;;;;;;;11.04;100.00;99140.28;4993826;28;20218;-73
2023/10/24 04:23:41;;;;;;;14.93;13.43;;;;;;;10.94;100.00;99137.56;5000569;28;20269;-72
2023/10/24 04:26:07;;;;;;;14.60;13.10;;;;;;;10.97;100.00;99150.22;4993419;28;20278;-72
2023/10/24 04:28:32;;;;;;;14.73;13.30;;;;;;;10.81;100.00;99135.84;4994851;28;20214;-73
2023/10/24 04:30:57;;;;;;;14.90;13.30;;;;;;;10.92;100.00;99129.16;4986251;28;20257;-71
2023/10/24 04:33:22;;;;;;;15.63;13.33;;;;;;;10.93;100.00;99129.03;5001973;28;20547;-72
2023/10/24 04:35:50;;;;;;;15.83;13.57;;;;;;;10.84;100.00;99134.00;4993520;28;20211;-72
2023/10/24 04:38:16;;;;;;;15.83;13.10;;;;;;;10.73;100.00;99127.88;4994821;28;20234;-72
2023/10/24 04:40:41;;;;;;;15.97;14.27;;;;;;;10.72;100.00;99125.44;4985714;28;20240;-73
2023/10/24 04:43:07;;;;;;;16.43;13.87;;;;;;;10.75;100.00;99120.84;4992687;28;20196;-73
2023/10/24 04:45:32;;;;;;;19.50;14.13;;;;;;;10.70;100.00;99124.72;4993183;28;20323;-74
2023/10/24 04:48:02;;;;;;;14.67;13.13;;;;;;;10.71;100.00;99122.00;4993311;28;20202;-73
2023/10/24 04:50:27;;;;;;;16.33;14.60;;;;;;;10.73;100.00;99116.75;4987164;28;20234;-73
2023/10/24 04:52:54;;;;;;;17.67;14.67;;;;;;;10.77;100.00;99113.06;5005572;28;20191;-73
2023/10/24 04:55:20;;;;;;;14.93;13.50;;;;;;;10.73;100.00;99106.47;4992680;28;20210;-74
2023/10/24 04:57:46;;;;;;;17.33;15.43;;;;;;;10.75;100.00;99099.47;4993736;28;20176;-74
2023/10/24 05:00:12;;;;;;;15.87;14.17;;;;;;;10.73;100.00;99102.16;4982873;28;20210;-74
2023/10/24 05:02:38;;;;;;;17.10;14.30;;;;;;;10.80;100.00;99100.81;5007059;28;20569;-74
2023/10/24 05:05:04;;;;;;;20.07;13.20;;;;;;;10.82;100.00;99096.34;4992518;28;20215;-74
2023/10/24 05:07:30;;;;;;;15.70;13.40;;;;;;;10.92;100.00;99085.41;4992498;28;20195;-74
2023/10/24 05:09:55;;;;;;;15.23;13.53;;;;;;;10.78;100.00;99094.13;4993679;28;20188;-73
2023/10/24 05:12:20;;;;;;;17.03;13.90;;;;;;;10.78;100.00;99086.41;4998770;28;20273;-73
2023/10/24 05:14:45;;;;;;;20.43;13.97;;;;;;;10.71;100.00;99087.78;4991838;28;20203;-73
2023/10/24 05:17:11;;;;;;;14.47;13.03;;;;;;;10.70;100.00;99074.06;4994022;28;20253;-73
2023/10/24 05:19:36;;;;;;;15.20;12.93;;;;;;;10.77;100.00;99070.13;4993751;28;20243;-73
2023/10/24 05:22:01;;;;;;;14.60;13.20;;;;;;;10.85;100.00;99061.84;4985082;28;20238;-73
2023/10/24 05:24:27;;;;;;;14.00;12.27;;;;;;;10.84;100.00;99056.84;4993480;28;20612;-73
2023/10/24 05:26:52;;;;;;;14.70;12.43;;;;;;;10.79;100.00;99044.28;4993687;28;20184;-73
2023/10/24 05:29:17;;;;;;;14.80;12.77;;;;;;;10.81;100.00;99032.16;4993299;28;20175;-73
2023/10/24 05:31:42;;;;;;;13.57;12.37;;;;;;;10.80;100.00;99023.63;4995959;28;20270;-74
2023/10/24 05:34:08;;;;;;;14.30;12.90;;;;;;;10.90;100.00;99025.50;4995927;28;20234;-73
2023/10/24 05:36:33;;;;;;;14.40;12.63;;;;;;;10.92;100.00;99018.50;4993208;28;20218;-73
2023/10/24 05:38:58;;;;;;;15.47;13.13;;;;;;;10.99;100.00;99014.56;4993298;28;20597;-73
2023/10/24 05:41:23;;;;;;;15.33;13.40;;;;;;;11.05;100.00;98998.66;4993587;28;20737;-74
2023/10/24 05:43:49;;;;;;;14.83;13.37;;;;;;;11.15;100.00;99006.53;4987746;28;20215;-74
2023/10/24 05:46:14;;;;;;;16.80;14.00;;;;;;;11.10;100.00;99008.59;4981564;28;20192;-73
2023/10/24 05:48:39;;;;;;;17.43;13.23;;;;;;;11.11;100.00;99016.22;4990606;28;20187;-74
2023/10/24 05:51:08;;;;;;;16.73;14.07;;;;;;;11.06;100.00;99025.22;4984802;28;20233;-74
2023/10/24 05:53:34;;;;;;;14.57;12.40;;;;;;;11.11;100.00;99041.97;4991194;28;20265;-74
2023/10/24 05:55:59;;;;;;;14.60;13.13;;;;;;;11.12;100.00;99047.94;4991792;28;20262;-74
2023/10/24 05:58:24;;;;;;;14.13;12.73;;;;;;;11.19;100.00;99056.84;4992678;28;20180;-74
2023/10/24 06:00:51;;;;;;;14.97;13.47;;;;;;;11.17;100.00;99060.47;4989215;28;20645;-74
2023/10/24 06:03:16;;;;;;;15.00;13.13;;;;;;;11.23;100.00;99072.88;4990912;28;20223;-74
2023/10/24 06:05:41;;;;;;;15.37;13.10;;;;;;;11.23;100.00;99065.97;4992826;28;20674;-74
2023/10/24 06:08:06;;;;;;;13.57;12.20;;;;;;;11.18;100.00;99069.81;4992891;28;20265;-74
2023/10/24 06:10:32;;;;;;;12.73;11.43;;;;;;;11.17;100.00;99069.00;4983719;28;20235;-73
2023/10/24 06:12:57;;;;;;;15.70;11.23;;;;;;;11.20;100.00;99055.91;5003923;28;20226;-74
2023/10/24 06:15:22;;;;;;;11.67;10.57;;;;;;;11.14;100.00;99057.16;4992777;28;20195;-74
2023/10/24 06:17:47;;;;;;;11.17;9.87;;;;;;;11.15;100.00;99058.00;4991298;28;20546;-73
2023/10/24 06:20:13;;;;;;;12.53;10.17;;;;;;;11.21;100.00;99059.28;4983098;28;20179;-73
2023/10/24 06:22:38;;;;;;;12.27;10.97;;;;;;;11.19;100.00;99062.00;4990277;28;20214;-74
2023/10/24 06:25:04;;;;;;;10.67;9.33;;;;;;;10.85;100.00;99069.56;4992679;28;20167;-74
2023/10/24 06:27:29;;;;;;;10.73;9.77;;;;;;;10.86;100.00;99073.78;4992364;28;20214;-73
2023/10/24 06:29:54;;;;;;;14.07;10.33;;;;;;;10.85;100.00;99063.63;4991353;28;20179;-74
2023/10/24 06:32:20;;;;;;;10.83;9.73;;;;;;;10.74;100.00;99062.66;4996837;28;20294;-73
2023/10/24 06:34:45;;;;;;;10.93;9.23;;;;;;;10.76;100.00;99065.91;4990821;28;20199;-72
2023/10/24 06:37:10;;;;;;;12.10;9.73;;;;;;;10.89;100.00;99070.19;4990705;28;20197;-72
2023/10/24 06:39:35;;;;;;;12.67;9.73;;;;;;;10.98;100.00;99070.34;4992285;28;20228;-72
2023/10/24 06:42:01;;;;;;;12.30;9.87;;;;;;;11.08;100.00;99077.41;4995310;28;20313;-72
2023/10/24 06:44:27;;;;;;;13.93;10.37;;;;;;;11.10;100.00;99075.50;4991396;28;20691;-73
2023/10/24 06:46:53;;;;;;;10.77;9.67;;;;;;;11.03;100.00;99074.34;4991720;28;20179;-73
2023/10/24 06:49:18;;;;;;;12.03;10.07;;;;;;;10.94;100.00;99073.22;4992390;28;20270;-73
2023/10/24 06:51:43;;;;;;;9.43;8.47;;;;;;;10.96;100.00;99068.81;4994395;28;20246;-73
2023/10/24 06:54:09;;;;;;;10.10;8.37;;;;;;;10.91;100.00;99065.75;4994497;28;20199;-73
2023/10/24 06:56:35;;;;;;;11.70;9.93;;;;;;;10.98;100.00;99077.25;4991905;28;20176;-73
2023/10/24 06:59:00;;;;;;;11.60;10.27;;;;;;;10.91;100.00;99082.00;4992085;28;20275;-73
2023/10/24 07:01:25;;;;;;;14.90;11.43;;;;;;;10.78;100.00;99081.25;4983041;28;20310;-72
2023/10/24 07:03:50;;;;;;;15.83;14.13;;;;;;;10.77;100.00;99066.75;4997019;28;20183;-73
2023/10/24 07:06:16;;;;;;;15.57;13.77;;;;;;;10.97;100.00;99073.03;4992219;28;20237;-73
2023/10/24 07:08:42;;;;;;;14.70;13.20;;;;;;;11.13;100.00;99065.81;4991855;28;20714;-73
2023/10/24 07:11:07;;;;;;;18.30;14.20;;;;;;;11.23;100.00;99070.31;4990117;28;20225;-73
2023/10/24 07:13:36;;;;;;;15.17;13.77;;;;;;;11.26;100.00;99065.75;4998266;28;20183;-73
2023/10/24 07:16:11;;;;;;;14.90;13.03;;;;;;;11.32;100.00;99061.88;4992073;28;20187;-73
2023/10/24 07:18:36;;;;;;;15.17;13.27;;;;;;;11.36;100.00;99062.47;4990483;28;20523;-74
2023/10/24 07:21:01;;;;;;;14.17;12.67;;;;;;;11.52;100.00;99073.25;4983527;28;20233;-74
2023/10/24 07:23:26;;;;;;;13.87;12.47;;;;;;;11.52;100.00;99075.84;5002552;28;20208;-74
2023/10/24 07:25:57;;;;;;;14.17;12.13;;;;;;;11.48;100.00;99076.22;4995655;28;20187;-73
2023/10/24 07:28:23;;;;;;;13.70;12.17;;;;;;;11.59;100.00;99079.59;4996095;28;20206;-72
2023/10/24 07:30:51;;;;;;;15.17;12.00;;;;;;;11.63;100.00;99093.91;4971118;28;20305;-73
2023/10/24 07:33:19;;;;;;;14.30;11.33;;;;;;;11.71;100.00;99083.03;5004307;28;20202;-73
2023/10/24 07:35:48;;;;;;;12.50;11.30;;;;;;;11.83;100.00;99083.03;4994304;28;20235;-73
2023/10/24 07:38:13;;;;;;;14.73;11.50;;;;;;;11.96;100.00;99078.63;4995567;28;20179;-74
2023/10/24 07:40:39;;;;;;;12.20;10.90;;;;;;;12.01;100.00;99067.97;4986611;28;20292;-73
2023/10/24 07:43:05;;;;;;;11.97;10.83;;;;;;;12.07;100.00;99075.22;4994087;28;20666;-74
2023/10/24 07:45:30;;;;;;;11.00;9.97;;;;;;;12.12;100.00;99075.69;4993874;28;20200;-73
2023/10/24 07:47:56;;;;;;;14.00;10.97;;;;;;;12.18;100.00;99072.63;4994219;28;20190;-74
2023/10/24 07:50:21;;;;;;;14.47;12.97;;;;;;;12.22;100.00;99080.94;4987923;28;20218;-74
2023/10/24 07:52:46;;;;;;;12.83;11.33;;;;;;;12.30;100.00;99077.75;5006770;28;20270;-74
2023/10/24 07:55:12;;;;;;;12.20;11.00;;;;;;;12.28;100.00;99077.88;4995094;28;20249;-75
2023/10/24 07:57:37;;;;;;;16.43;10.63;;;;;;;12.25;100.00;99068.63;4995494;28;20191;-74
2023/10/24 08:00:03;;;;;;;12.43;11.20;;;;;;;12.20;100.00;99068.16;4991961;28;20278;-74
2023/10/24 08:02:28;;;;;;;14.20;12.00;;;;;;;12.21;100.00;99061.25;4991321;28;20317;-74
2023/10/24 08:04:54;;;;;;;12.03;10.60;;;;;;;12.13;100.00;99053.28;4995064;28;20645;-74
2023/10/24 08:07:19;;;;;;;12.80;11.50;;;;;;;12.15;100.00;99043.69;4993851;28;20765;-74
2023/10/24 08:09:44;;;;;;;13.67;12.23;;;;;;;12.20;100.00;99057.03;4994754;28;20188;-74
2023/10/24 08:12:10;;;;;;;13.07;11.87;;;;;;;12.25;100.00;99066.06;4985289;28;20223;-74
2023/10/24 08:14:36;;;;;;;12.33;11.23;;;;;;;12.30;100.00;99059.72;4994651;28;20509;-74
2023/10/24 08:17:01;;;;;;;12.43;11.30;;;;;;;12.32;100.00;99063.00;4995202;28;20195;-74
2023/10/24 08:19:26;;;;;;;12.20;11.00;;;;;;;12.33;100.00;99075.75;4993410;28;20193;-74
2023/10/24 08:21:51;;;;;;;12.17;10.97;;;;;;;12.37;100.00;99081.50;4998195;28;20242;-74
2023/10/24 08:24:17;;;;;;;12.57;11.27;;;;;;;12.42;100.00;99075.03;4995898;28;20246;-74
2023/10/24 08:26:42;;;;;;;12.50;11.17;;;;;;;12.51;100.00;99067.50;4993370;28;20184;-74
2023/10/24 08:29:07;;;;;;;14.57;11.00;;;;;;;12.40;100.00;99066.59;4994425;28;20550;-74
2023/10/24 08:31:32;;;;;;;13.60;10.37;;;;;;;12.32;100.00;99068.97;4986219;28;20234;-75
2023/10/24 08:33:58;;;;;;;10.80;9.80;;;;;;;12.18;100.00;99077.78;4996339;28;20207;-74
2023/10/24 08:36:23;;;;;;;11.50;10.20;;;;;;;12.23;100.00;99073.09;4993334;28;20180;-74
2023/10/24 08:38:48;;;;;;;11.77;10.57;;;;;;;12.31;100.00;99081.97;4994179;28;20631;-74
2023/10/24 08:41:14;;;;;;;13.00;9.67;;;;;;;12.35;100.00;99083.38;4986288;28;20233;-74
2023/10/24 08:43:40;;;;;;;12.03;10.00;;;;;;;12.35;100.00;99083.38;5000020;28;20195;-75
2023/10/24 08:46:05;;;;;;;10.80;9.70;;;;;;;12.23;100.00;99090.28;4994414;28;20193;-75
2023/10/24 08:48:33;;;;;;;12.23;10.90;;;;;;;12.09;100.00;99094.78;4992797;28;20275;-76
2023/10/24 08:50:59;;;;;;;12.17;10.13;;;;;;;11.91;100.00;99091.81;4986159;28;20234;-75
2023/10/24 08:53:24;;;;;;;12.53;9.73;;;;;;;11.92;100.00;99097.78;5001568;28;20172;-73
2023/10/24 08:55:54;;;;;;;11.73;10.73;;;;;;;11.92;100.00;99102.94;4993985;28;20199;-74
2023/10/24 08:58:20;;;;;;;16.13;11.53;;;;;;;11.93;100.00;99099.41;4994371;28;20183;-74
2023/10/24 09:00:46;;;;;;;15.67;11.50;;;;;;;12.05;100.00;99098.50;4985854;28;20696;-75
2023/10/24 09:03:13;;;;;;;13.47;11.50;;;;;;;12.05;100.00;99101.09;4991967;28;20303;-75
2023/10/24 09:05:38;;;;;;;12.87;11.63;;;;;;;12.05;100.00;99103.66;4994190;28;20179;-76
2023/10/24 09:08:04;;;;;;;14.63;11.50;;;;;;;12.11;100.00;99104.97;4993785;28;20176;-77
2023/10/24 09:10:31;;;;;;;11.90;9.77;;;;;;;11.90;100.00;99100.47;4987248;28;20222;-78
2023/10/24 09:12:56;;;;;;;14.87;10.70;;;;;;;11.85;100.00;99091.47;5004827;28;20179;-78
2023/10/24 09:15:22;;;;;;;11.70;10.47;;;;;;;11.76;100.00;99082.69;4993979;28;20211;-78
2023/10/24 09:17:47;;;;;;;13.10;11.50;;;;;;;11.73;100.00;99085.47;4993806;28;20187;-78
2023/10/24 09:20:12;;;;;;;12.43;11.23;;;;;;;11.87;100.00;99081.84;4985242;28;20191;-79
2023/10/24 09:22:40;;;;;;;12.43;11.27;;;;;;;12.04;100.00;99086.56;4991307;28;20207;-79
2023/10/24 09:25:08;;;;;;;11.87;9.50;;;;;;;12.15;100.00;99082.34;4992816;28;20266;-79
2023/10/24 09:27:33;;;;;;;10.93;9.83;;;;;;;12.20;100.00;99073.31;4992348;28;20638;-79
2023/10/24 09:30:08;;;;;;;10.73;9.63;;;;;;;12.11;100.00;99074.03;4993708;28;20263;-78
2023/10/24 09:32:33;;;;;;;11.63;9.63;;;;;;;12.29;100.00;99076.13;4965513;28;20309;-78
2023/10/24 09:35:03;;;;;;;11.40;9.47;;;;;;;12.24;100.00;99064.41;4993449;28;20282;-78
2023/10/24 09:37:28;;;;;;;11.10;10.00;;;;;;;12.35;100.00;99057.59;4993180;28;20254;-79
2023/10/24 09:39:56;;;;;;;9.73;8.83;;;;;;;12.40;100.00;99053.72;4991703;28;20635;-79
2023/10/24 09:42:26;;;;;;;10.40;9.40;;;;;;;12.43;100.00;99060.38;4981872;28;20301;-78
2023/10/24 09:44:54;;;;;;;10.30;9.23;;;;;;;12.44;100.00;99051.72;4991294;28;20187;-79
2023/10/24 09:47:20;;;;;;;10.50;8.80;;;;;;;12.49;100.00;99049.59;4991786;28;20180;-79
2023/10/24 09:49:49;;;;;;;13.23;9.43;;;;;;;12.49;100.00;99046.16;4992942;28;20191;-79
2023/10/24 09:52:17;;;;;;;12.87;9.30;;;;;;;12.49;100.00;99048.75;4998115;28;20218;-78
2023/10/24 09:54:42;;;;;;;10.47;9.57;;;;;;;12.58;100.00;99046.25;4991357;28;20343;-78
2023/10/24 09:57:10;;;;;;;15.93;9.63;;;;;;;12.51;100.00;99046.88;4991755;28;20222;-79
2023/10/24 09:59:35;;;;;;;10.03;8.97;;;;;;;12.55;100.00;99036.19;4992812;28;20190;-78
2023/10/24 10:02:01;;;;;;;10.80;9.27;;;;;;;12.60;100.00;99043.56;4997249;28;20238;-78
2023/10/24 10:04:27;;;;;;;13.03;9.70;;;;;;;12.64;100.00;99037.22;4992583;28;20183;-78
2023/10/24 10:06:54;;;;;;;10.53;8.63;;;;;;;12.37;100.00;99035.88;4992845;28;20286;-78
2023/10/24 10:09:19;;;;;;;8.90;8.03;;;;;;;12.41;100.00;99029.53;4991360;28;20561;-78
2023/10/24 10:11:46;;;;;;;13.27;8.90;;;;;;;12.52;100.00;99031.28;4995170;28;20222;-78
2023/10/24 10:14:27;;;;;;;9.13;8.23;;;;;;;12.60;100.00;99020.34;4991034;28;20573;-79
2023/10/24 10:17:19;;;;;;;9.70;8.20;;;;;;;12.52;100.00;99015.78;4991215;28;20206;-78
2023/10/24 10:20:19;;;;;;;11.43;8.47;;;;;;;12.57;100.00;99023.19;4992194;28;20270;-78
2023/10/24 10:22:52;;;;;;;12.50;8.70;;;;;;;12.59;100.00;99013.56;4946963;28;20291;-78
2023/10/24 10:25:29;;;;;;;12.87;8.83;;;;;;;12.58;100.00;99017.88;4973099;28;20192;-78
2023/10/24 10:28:28;;;;;;;9.33;8.53;;;;;;;12.47;100.00;99006.81;4971526;28;20624;-77
2023/10/24 10:31:17;;;;;;;11.17;8.70;;;;;;;12.57;100.00;99005.13;4976440;28;20218;-78
2023/10/24 10:33:43;;;;;;;12.40;9.10;;;;;;;12.62;100.00;99002.19;4997634;28;20258;-78
2023/10/24 10:36:12;;;;;;;10.93;8.57;;;;;;;12.68;100.00;99001.69;4991233;28;20567;-78
2023/10/24 10:38:47;;;;;;;11.10;8.17;;;;;;;12.70;100.00;98992.88;4989380;28;20189;-78
2023/10/24 10:41:21;;;;;;;10.20;8.20;;;;;;;12.63;100.00;98990.88;4984118;28;20268;-78
2023/10/24 10:43:54;;;;;;;9.13;8.17;;;;;;;12.62;100.00;98981.53;4986981;28;20186;-77
2023/10/24 10:46:26;;;;;;;9.13;8.23;;;;;;;12.52;100.00;98978.88;4991263;28;20187;-77
2023/10/24 10:48:59;;;;;;;10.63;8.43;;;;;;;12.57;100.00;98980.13;4991978;28;20215;-77
2023/10/24 10:51:29;;;;;;;19.07;10.17;;;;;;;12.64;100.00;98977.06;4983798;28;20732;-78
2023/10/24 10:54:14;;;;;;;9.50;8.60;;;;;;;12.62;100.00;98981.53;4979687;28;20195;-76
2023/10/24 10:56:40;;;;;;;9.63;8.40;;;;;;;12.58;100.00;98984.34;4990730;28;20270;-76
2023/10/24 10:59:09;;;;;;;9.57;8.63;;;;;;;12.61;100.00;98985.06;4992384;28;20769;-77
2023/10/24 11:02:02;;;;;;;12.53;8.87;;;;;;;12.42;100.00;98989.13;4982703;28;20295;-76
2023/10/24 11:04:28;;;;;;;9.37;8.00;;;;;;;12.20;100.00;98995.97;4990304;28;20646;-76
2023/10/24 11:06:55;;;;;;;11.27;7.97;;;;;;;12.22;100.00;98995.88;4991915;28;20257;-76
2023/10/24 11:09:22;;;;;;;10.97;7.63;;;;;;;12.16;100.00;98986.84;5000563;28;20194;-74